createdAt,value
2023-02-24T00:01:43.097Z,5.57
2023-02-24T00:04:12.405Z,6.35
2023-02-24T00:06:43.737Z,5.65
2023-02-24T00:09:18.020Z,5.38
2023-02-24T00:12:08.865Z,5.15
2023-02-24T00:14:38.631Z,4.93
2023-02-24T00:17:09.481Z,5.25
2023-02-24T00:19:36.862Z,5.30
2023-02-24T00:22:05.958Z,5.32
2023-02-24T00:24:33.078Z,5.72
2023-02-24T00:27:01.587Z,5.60
2023-02-24T00:29:29.299Z,6.47
2023-02-24T00:32:06.507Z,5.32
2023-02-24T00:34:36.391Z,5.70
2023-02-24T00:37:03.595Z,5.25
2023-02-24T00:39:32.725Z,5.40
2023-02-24T00:42:05.973Z,5.50
2023-02-24T00:44:34.411Z,5.97
2023-02-24T00:47:02.456Z,5.60
2023-02-24T00:49:29.417Z,5.90
2023-02-24T00:51:56.048Z,5.22
2023-02-24T00:54:27.043Z,5.15
2023-02-24T00:56:54.559Z,5.05
2023-02-24T00:59:23.830Z,4.95
2023-02-24T01:01:51.585Z,4.45
2023-02-24T01:04:19.967Z,5.10
2023-02-24T01:14:23.775Z,4.22
2023-02-24T01:16:50.628Z,4.75
2023-02-24T01:19:22.056Z,5.68
2023-02-24T01:21:53.090Z,4.60
2023-02-24T01:24:19.494Z,4.60
2023-02-24T01:26:45.904Z,4.78
2023-02-24T01:29:12.328Z,5.05
2023-02-24T01:31:42.569Z,5.38
2023-02-24T01:34:10.853Z,5.05
2023-02-24T01:36:39.118Z,4.35
2023-02-24T01:39:07.435Z,4.68
2023-02-24T01:41:33.850Z,4.30
2023-02-24T01:44:17.345Z,4.45
2023-02-24T01:46:46.869Z,4.70
2023-02-24T01:49:13.224Z,4.80
2023-02-24T01:51:45.423Z,4.28
2023-02-24T01:54:15.542Z,4.93
2023-02-24T01:56:43.005Z,3.92
2023-02-24T01:59:10.354Z,4.90
2023-02-24T02:01:41.020Z,5.25
2023-02-24T02:04:17.069Z,4.38
2023-02-24T02:06:45.324Z,4.45
2023-02-24T02:09:15.220Z,4.70
2023-02-24T02:11:43.004Z,4.93
2023-02-24T02:14:09.988Z,5.07
2023-02-24T02:16:54.487Z,4.50
2023-02-24T02:19:33.873Z,4.50
2023-02-24T02:22:23.437Z,4.28
2023-02-24T02:25:01.514Z,4.53
2023-02-24T02:27:39.969Z,4.50
2023-02-24T02:30:19.516Z,4.75
2023-02-24T02:33:39.433Z,4.60
2023-02-24T02:36:22.267Z,5.00
2023-02-24T02:38:57.596Z,4.32
2023-02-24T02:42:04.644Z,3.33
2023-02-24T02:44:44.975Z,4.90
2023-02-24T02:47:19.272Z,4.47
2023-02-24T02:49:51.934Z,4.88
2023-02-24T02:52:28.578Z,5.30
2023-02-24T02:55:02.908Z,4.93
2023-02-24T02:57:31.085Z,5.07
2023-02-24T03:00:21.263Z,4.93
2023-02-24T03:02:52.066Z,5.20
2023-02-24T03:05:29.574Z,5.15
2023-02-24T03:07:59.095Z,4.97
2023-02-24T03:10:27.878Z,5.13
2023-02-24T03:12:58.368Z,5.22
2023-02-24T03:15:28.014Z,5.00
2023-02-24T03:18:10.092Z,4.90
2023-02-24T03:20:43.031Z,5.38
2023-02-24T03:23:16.756Z,5.13
2023-02-24T03:25:51.800Z,5.10
2023-02-24T03:28:24.824Z,5.60
2023-02-24T03:31:03.547Z,5.05
2023-02-24T03:33:36.892Z,5.07
2023-02-24T03:36:03.748Z,5.15
2023-02-24T03:38:32.938Z,6.20
2023-02-24T03:40:59.782Z,4.90
2023-02-24T03:43:31.630Z,5.22
2023-02-24T03:45:59.191Z,5.20
2023-02-24T03:48:27.737Z,5.35
2023-02-24T03:50:54.770Z,4.75
2023-02-24T03:53:42.337Z,5.40
2023-02-24T03:56:29.278Z,5.30
2023-02-24T03:59:25.128Z,5.07
2023-02-24T04:02:02.411Z,5.68
2023-02-24T04:04:35.039Z,4.97
2023-02-24T04:07:14.906Z,5.18
2023-02-24T04:09:50.197Z,5.07
2023-02-24T04:12:28.766Z,4.60
2023-02-24T04:15:08.391Z,5.63
2023-02-24T04:17:45.711Z,5.03
2023-02-24T04:20:20.262Z,4.90
2023-02-24T04:22:56.954Z,4.60
2023-02-24T04:25:25.778Z,5.10
2023-02-24T04:28:01.130Z,4.97
2023-02-24T04:30:32.001Z,6.10
2023-02-24T04:32:58.473Z,6.25
2023-02-24T04:35:26.819Z,6.43
2023-02-24T04:37:53.718Z,6.15
2023-02-24T04:40:22.227Z,5.97
2023-02-24T04:42:51.703Z,6.07
2023-02-24T04:45:24.269Z,5.25
2023-02-24T04:47:56.057Z,4.65
2023-02-24T04:50:25.316Z,4.45
2023-02-24T04:52:52.212Z,4.97
2023-02-24T04:55:22.286Z,5.00
2023-02-24T04:57:58.214Z,5.07
2023-02-24T05:00:26.712Z,6.78
2023-02-24T05:02:58.972Z,7.47
2023-02-24T05:05:25.764Z,8.50
2023-02-24T05:07:54.487Z,6.88
2023-02-24T05:10:27.951Z,6.57
2023-02-24T05:12:58.076Z,7.03
2023-02-24T05:15:31.060Z,6.05
2023-02-24T05:18:07.665Z,5.93
2023-02-24T05:20:58.176Z,5.70
2023-02-24T05:23:36.605Z,6.10
2023-02-24T05:26:08.913Z,5.10
2023-02-24T05:28:37.356Z,6.18
2023-02-24T05:31:10.549Z,5.10
2023-02-24T05:33:38.774Z,5.80
2023-02-24T05:36:08.557Z,5.53
2023-02-24T05:38:37.948Z,5.40
2023-02-24T05:41:11.896Z,5.03
2023-02-24T05:43:39.166Z,5.00
2023-02-24T05:46:07.058Z,5.35
2023-02-24T05:48:35.270Z,5.05
2023-02-24T05:51:05.261Z,5.75
2023-02-24T05:53:31.791Z,5.28
2023-02-24T05:56:01.078Z,5.40
2023-02-24T05:58:29.087Z,5.22
2023-02-24T06:00:56.237Z,5.28
2023-02-24T06:03:30.898Z,5.50
2023-02-24T06:06:05.492Z,5.50
2023-02-24T06:08:42.109Z,5.60
2023-02-24T06:11:10.392Z,4.93
2023-02-24T06:13:37.951Z,5.65
2023-02-24T06:16:06.775Z,5.32
2023-02-24T06:18:34.051Z,5.45
2023-02-24T06:21:04.280Z,5.38
2023-02-24T06:23:30.676Z,8.05
2023-02-24T06:26:02.166Z,11.60
2023-02-24T06:28:28.544Z,7.20
2023-02-24T06:30:56.170Z,6.28
2023-02-24T06:33:25.825Z,6.45
2023-02-24T06:35:53.482Z,6.32
2023-02-24T06:38:19.933Z,6.93
2023-02-24T06:40:47.460Z,7.15
2023-02-24T06:43:13.850Z,6.70
2023-02-24T06:45:40.374Z,7.30
2023-02-24T06:48:09.007Z,7.93
2023-02-24T06:50:35.392Z,8.02
2023-02-24T06:53:02.625Z,7.70
2023-02-24T06:55:29.415Z,6.13
2023-02-24T06:57:58.954Z,6.25
2023-02-24T07:00:37.042Z,5.72
2023-02-24T07:03:15.851Z,6.30
2023-02-24T07:05:50.061Z,7.63
2023-02-24T07:08:18.090Z,6.47
2023-02-24T07:10:44.950Z,6.10
2023-02-24T07:13:13.510Z,5.78
2023-02-24T07:15:39.924Z,5.88
2023-02-24T07:18:14.699Z,6.85
2023-02-24T07:20:45.527Z,6.30
2023-02-24T07:23:14.065Z,6.65
2023-02-24T07:25:41.450Z,6.50
2023-02-24T07:28:08.017Z,6.22
2023-02-24T07:30:34.800Z,7.30
2023-02-24T07:33:03.749Z,6.88
2023-02-24T07:35:30.794Z,6.38
2023-02-24T07:38:02.028Z,8.65
2023-02-24T07:40:33.493Z,7.65
2023-02-24T07:43:01.467Z,8.60
2023-02-24T07:45:29.614Z,8.77
2023-02-24T07:48:01.393Z,8.50
2023-02-24T07:50:28.170Z,7.22
2023-02-24T07:52:54.566Z,7.68
2023-02-24T07:55:21.617Z,7.50
2023-02-24T07:57:48.421Z,8.35
2023-02-24T08:00:19.850Z,8.35
2023-02-24T08:02:49.033Z,8.50
2023-02-24T08:05:18.666Z,8.32
2023-02-24T08:07:49.820Z,7.85
2023-02-24T08:10:27.077Z,7.07
2023-02-24T08:12:56.135Z,6.88
2023-02-24T08:15:25.158Z,6.78
2023-02-24T08:17:53.678Z,6.68
2023-02-24T08:20:21.931Z,6.70
2023-02-24T08:22:53.597Z,6.57
2023-02-24T08:25:24.161Z,7.22
2023-02-24T08:28:08.972Z,6.00
2023-02-24T08:30:39.259Z,6.43
2023-02-24T08:33:08.959Z,6.65
2023-02-24T08:35:37.541Z,6.07
2023-02-24T08:38:10.556Z,6.60
2023-02-24T08:40:50.008Z,6.60
2023-02-24T08:43:42.124Z,6.53
2023-02-24T08:46:18.185Z,8.02
2023-02-24T08:51:17.930Z,6.50
2023-02-24T08:53:46.768Z,6.50
2023-02-24T08:56:23.845Z,6.68
2023-02-24T08:59:05.164Z,6.50
2023-02-24T09:01:38.060Z,6.22
2023-02-24T09:04:13.202Z,6.63
2023-02-24T09:06:45.576Z,6.95
2023-02-24T09:09:23.049Z,7.63
2023-02-24T09:11:57.228Z,7.00
2023-02-24T09:14:29.922Z,6.72
2023-02-24T09:17:02.234Z,7.15
2023-02-24T09:19:46.425Z,6.70
2023-02-24T09:22:21.268Z,6.50
2023-02-24T09:24:51.141Z,5.93
2023-02-24T09:27:17.657Z,5.97
2023-02-24T09:29:49.275Z,5.00
2023-02-24T09:32:16.212Z,4.97
2023-02-24T09:34:47.198Z,4.65
2023-02-24T09:37:24.861Z,4.72
2023-02-24T09:39:55.921Z,4.50
2023-02-24T09:42:46.305Z,4.93
2023-02-24T09:45:33.358Z,4.22
2023-02-24T09:48:16.709Z,4.60
2023-02-24T09:51:03.419Z,5.03
2023-02-24T09:53:42.339Z,4.72
2023-02-24T09:56:22.108Z,4.78
2023-02-24T09:59:27.137Z,5.25
2023-02-24T10:02:27.302Z,5.32
2023-02-24T10:05:15.447Z,5.55
2023-02-24T10:07:43.913Z,4.75
2023-02-24T10:10:29.553Z,4.72
2023-02-24T10:12:58.868Z,5.05
2023-02-24T10:15:58.985Z,5.05
2023-02-24T10:19:01.111Z,5.43
2023-02-24T10:21:48.423Z,5.00
2023-02-24T10:24:29.313Z,5.47
2023-02-24T10:27:08.728Z,5.25
2023-02-24T10:29:45.483Z,5.75
2023-02-24T10:34:52.051Z,6.10
2023-02-24T10:37:28.264Z,5.97
2023-02-24T10:40:00.963Z,6.40
2023-02-24T10:42:32.544Z,6.20
2023-02-24T10:45:17.344Z,6.80
2023-02-24T10:47:50.061Z,7.07
2023-02-24T10:50:24.267Z,6.82
2023-02-24T10:52:57.140Z,7.25
2023-02-24T10:55:44.783Z,6.15
2023-02-24T10:58:27.750Z,6.20
2023-02-24T11:01:06.824Z,7.00
2023-02-24T11:03:41.789Z,5.32
2023-02-24T11:06:48.909Z,6.45
2023-02-24T11:09:21.974Z,6.50
2023-02-24T11:12:20.827Z,5.78
2023-02-24T11:15:12.779Z,6.00
2023-02-24T11:17:57.036Z,5.80
2023-02-24T11:20:46.423Z,5.68
2023-02-24T11:23:19.866Z,6.25
2023-02-24T11:25:54.052Z,6.00
2023-02-24T11:28:58.960Z,6.53
2023-02-24T11:31:40.338Z,5.88
2023-02-24T11:34:17.030Z,5.95
2023-02-24T11:37:14.534Z,6.07
2023-02-24T11:42:39.095Z,3.95
2023-02-24T11:45:29.942Z,3.80
2023-02-24T11:48:15.952Z,4.03
2023-02-24T11:50:58.234Z,4.18
2023-02-24T11:53:46.607Z,3.70
2023-02-24T11:56:22.174Z,4.15
2023-02-24T11:59:16.050Z,4.67
2023-02-24T12:01:50.727Z,4.65
2023-02-24T12:04:46.301Z,4.28
2023-02-24T12:07:20.375Z,4.82
2023-02-24T12:10:17.121Z,4.28
2023-02-24T12:13:02.732Z,5.15
2023-02-24T12:15:34.156Z,4.43
2023-02-24T12:18:20.026Z,4.22
2023-02-24T12:21:05.519Z,4.70
2023-02-24T12:23:39.248Z,4.65
2023-02-24T12:26:17.807Z,5.53
2023-02-24T12:29:08.005Z,4.68
2023-02-24T12:31:53.463Z,4.90
2023-02-24T12:34:30.164Z,4.45
2023-02-24T12:37:16.629Z,4.80
2023-02-24T12:39:56.977Z,5.28
2023-02-24T12:42:52.062Z,5.70
2023-02-24T12:45:43.310Z,5.07
2023-02-24T12:48:47.702Z,5.63
2023-02-24T12:51:28.034Z,5.93
2023-02-24T12:54:11.990Z,6.60
2023-02-24T12:56:49.666Z,6.22
2023-02-24T12:59:22.497Z,6.30
2023-02-24T13:01:57.995Z,5.78
2023-02-24T13:05:03.128Z,7.03
2023-02-24T13:07:49.831Z,6.75
2023-02-24T13:10:47.987Z,8.98
2023-02-24T13:13:31.477Z,6.20
2023-02-24T13:16:02.350Z,6.50
2023-02-24T13:18:31.349Z,6.45
2023-02-24T13:21:30.417Z,6.32
2023-02-24T13:24:02.211Z,7.90
2023-02-24T13:26:31.626Z,7.55
2023-02-24T13:29:02.761Z,7.68
2023-02-24T13:31:52.075Z,8.98
2023-02-24T13:34:21.632Z,7.97
2023-02-24T13:36:49.789Z,7.03
2023-02-24T13:39:45.458Z,5.90
2023-02-24T13:42:22.764Z,6.03
2023-02-24T13:45:01.690Z,5.93
2023-02-24T13:47:49.267Z,5.97
2023-02-24T13:50:35.172Z,6.30
2023-02-24T13:53:33.766Z,6.78
2023-02-24T13:56:04.928Z,5.70
2023-02-24T13:58:50.328Z,5.43
2023-02-24T14:01:18.638Z,4.85
2023-02-24T14:04:15.505Z,5.13
2023-02-24T14:06:48.662Z,5.60
2023-02-24T14:09:21.158Z,5.93
2023-02-24T14:11:52.781Z,5.25
2023-02-24T14:14:22.525Z,5.13
2023-02-24T14:16:50.792Z,5.18
2023-02-24T14:19:17.650Z,5.90
2023-02-24T14:21:55.999Z,5.35
2023-02-24T14:24:26.738Z,5.20
2023-02-24T14:26:56.020Z,4.78
2023-02-24T14:29:26.286Z,5.30
2023-02-24T14:31:55.172Z,5.07
2023-02-24T14:34:24.934Z,4.68
2023-02-24T14:36:55.108Z,5.15
2023-02-24T14:39:30.797Z,5.30
2023-02-24T14:42:11.688Z,4.97
2023-02-24T14:44:50.812Z,4.93
2023-02-24T14:47:19.443Z,4.57
2023-02-24T14:50:04.404Z,5.40
2023-02-24T14:52:38.451Z,5.32
2023-02-24T14:55:24.073Z,5.45
2023-02-24T14:58:00.986Z,5.45
2023-02-24T15:00:32.965Z,5.30
2023-02-24T15:03:29.436Z,6.13
2023-02-24T15:06:01.414Z,6.47
2023-02-24T15:08:46.157Z,4.90
2023-02-24T15:11:21.965Z,5.40
2023-02-24T15:13:54.953Z,5.68
2023-02-24T15:16:26.890Z,5.45
2023-02-24T15:18:57.363Z,5.85
2023-02-24T15:21:31.301Z,5.65
2023-02-24T15:24:00.477Z,5.82
2023-02-24T15:26:32.948Z,5.95
2023-02-24T15:29:20.824Z,5.10
2023-02-24T15:31:48.541Z,5.75
2023-02-24T15:34:24.425Z,6.03
2023-02-24T15:36:54.247Z,5.68
2023-02-24T15:39:28.456Z,5.47
2023-02-24T15:42:08.030Z,5.75
2023-02-24T15:44:35.762Z,5.20
2023-02-24T15:47:28.882Z,6.00
2023-02-24T15:49:55.602Z,6.75
2023-02-24T15:52:29.545Z,6.72
2023-02-24T15:54:57.914Z,6.72
2023-02-24T15:57:25.034Z,5.93
2023-02-24T15:59:51.892Z,5.68
2023-02-24T16:02:20.717Z,6.85
2023-02-24T16:04:49.347Z,6.32
2023-02-24T16:07:26.926Z,6.80
2023-02-24T16:09:54.828Z,6.88
2023-02-24T16:12:31.808Z,6.22
2023-02-24T16:15:03.844Z,6.28
2023-02-24T16:17:35.023Z,6.35
2023-02-24T16:20:02.502Z,6.05
2023-02-24T16:22:30.028Z,6.93
2023-02-24T16:24:56.593Z,6.60
2023-02-24T16:27:25.950Z,5.90
2023-02-24T16:29:53.084Z,6.05
2023-02-24T16:32:22.129Z,5.60
2023-02-24T16:34:49.642Z,5.53
2023-02-24T16:37:29.111Z,5.72
2023-02-24T16:39:55.773Z,6.85
2023-02-24T16:42:30.976Z,6.45
2023-02-24T16:44:57.364Z,6.97
2023-02-24T16:47:25.200Z,6.32
2023-02-24T16:49:55.404Z,6.40
2023-02-24T16:52:24.712Z,7.22
2023-02-24T16:54:51.181Z,7.93
2023-02-24T16:57:17.580Z,7.72
2023-02-24T16:59:43.969Z,8.07
2023-02-24T17:02:20.009Z,7.88
2023-02-24T17:04:46.401Z,8.27
2023-02-24T17:07:14.486Z,8.23
2023-02-24T17:09:41.100Z,6.78
2023-02-24T17:12:08.438Z,7.25
2023-02-24T17:14:34.839Z,6.15
2023-02-24T17:17:01.364Z,6.47
2023-02-24T17:19:27.786Z,7.13
2023-02-24T17:21:54.169Z,7.35
2023-02-24T17:24:20.813Z,7.47
2023-02-24T17:26:47.310Z,8.40
2023-02-24T17:29:14.633Z,8.43
2023-02-24T17:31:42.170Z,7.50
2023-02-24T17:34:09.346Z,7.72
2023-02-24T17:36:35.858Z,6.72
2023-02-24T17:39:02.288Z,6.13
2023-02-24T17:41:28.732Z,6.10
2023-02-24T17:43:57.144Z,5.97
2023-02-24T17:46:23.882Z,6.00
2023-02-24T17:48:51.610Z,6.38
2023-02-24T17:51:19.679Z,5.90
2023-02-24T17:53:46.334Z,7.28
2023-02-24T17:56:12.791Z,6.55
2023-02-24T17:58:40.219Z,6.78
2023-02-24T18:01:06.891Z,6.13
2023-02-24T18:03:35.760Z,6.07
2023-02-24T18:06:05.958Z,6.10
2023-02-24T18:08:34.219Z,5.95
2023-02-24T18:11:01.760Z,5.70
2023-02-24T18:13:29.808Z,6.03
2023-02-24T18:15:56.506Z,5.80
2023-02-24T18:18:24.363Z,10.13
2023-02-24T18:20:51.133Z,5.55
2023-02-24T18:23:17.653Z,5.25
2023-02-24T18:25:44.440Z,5.45
2023-02-24T18:28:11.854Z,5.53
2023-02-24T18:30:39.286Z,5.50
2023-02-24T18:33:05.880Z,5.03
2023-02-24T18:35:32.432Z,5.53
2023-02-24T18:37:58.805Z,5.72
2023-02-24T18:40:26.793Z,6.25
2023-02-24T18:42:53.270Z,5.15
2023-02-24T18:45:25.609Z,5.43
2023-02-24T18:48:01.839Z,5.13
2023-02-24T18:50:35.529Z,5.20
2023-02-24T18:53:02.998Z,5.15
2023-02-24T18:55:36.604Z,6.07
2023-02-24T18:58:02.993Z,4.80
2023-02-24T19:00:29.363Z,5.05
2023-02-24T19:03:09.301Z,5.40
2023-02-24T19:05:38.801Z,5.63
2023-02-24T19:08:05.769Z,7.47
2023-02-24T19:10:32.272Z,5.95
2023-02-24T19:12:58.796Z,6.28
2023-02-24T19:15:48.266Z,7.40
2023-02-24T19:18:16.891Z,6.18
2023-02-24T19:20:44.147Z,7.55
2023-02-24T19:23:11.078Z,7.93
2023-02-24T19:25:37.539Z,7.45
2023-02-24T19:28:04.020Z,8.27
2023-02-24T19:30:31.777Z,7.72
2023-02-24T19:32:59.250Z,9.57
2023-02-24T19:35:26.277Z,9.43
2023-02-24T19:37:52.743Z,9.10
2023-02-24T19:40:30.481Z,9.18
2023-02-24T19:42:56.916Z,9.20
2023-02-24T19:45:23.313Z,10.82
2023-02-24T19:47:49.721Z,11.88
2023-02-24T19:50:16.809Z,10.30
2023-02-24T19:52:43.177Z,11.38
2023-02-24T19:55:12.612Z,9.07
2023-02-24T19:57:55.708Z,9.18
2023-02-24T20:00:23.403Z,8.55
2023-02-24T20:02:50.282Z,7.68
2023-02-24T20:05:19.197Z,7.55
2023-02-24T20:07:46.282Z,7.40
2023-02-24T20:10:17.316Z,7.63
2023-02-24T20:12:44.857Z,7.95
2023-02-24T20:15:11.565Z,8.23
2023-02-24T20:17:38.025Z,7.28
2023-02-24T20:20:04.891Z,7.00
2023-02-24T20:22:31.438Z,7.18
2023-02-24T20:24:57.836Z,7.05
2023-02-24T20:27:24.243Z,7.00
2023-02-24T20:29:53.569Z,5.72
2023-02-24T20:32:20.246Z,5.75
2023-02-24T20:34:46.718Z,5.32
2023-02-24T20:37:13.149Z,4.70
2023-02-24T20:39:40.851Z,5.20
2023-02-24T20:42:07.236Z,4.80
2023-02-24T20:44:33.713Z,4.53
2023-02-24T20:47:00.247Z,4.40
2023-02-24T20:49:27.224Z,3.67
2023-02-24T20:51:53.703Z,4.18
2023-02-24T20:54:20.240Z,4.32
2023-02-24T20:56:47.017Z,4.03
2023-02-24T20:59:19.035Z,4.18
2023-02-24T21:01:47.820Z,3.70
2023-02-24T21:04:17.183Z,3.60
2023-02-24T21:06:43.678Z,3.08
2023-02-24T21:09:11.945Z,3.67
2023-02-24T21:11:38.505Z,3.60
2023-02-24T21:14:05.969Z,3.25
2023-02-24T21:16:35.256Z,4.22
2023-02-24T21:19:01.838Z,3.50
2023-02-24T21:21:28.388Z,3.58
2023-02-24T21:23:55.825Z,3.13
2023-02-24T21:26:24.649Z,4.35
2023-02-24T21:28:57.162Z,3.53
2023-02-24T21:31:24.219Z,4.22
2023-02-24T21:33:52.283Z,4.15
2023-02-24T21:36:27.595Z,4.43
2023-02-24T21:38:54.748Z,3.85
2023-02-24T21:41:21.595Z,3.35
2023-02-24T21:43:51.050Z,3.78
2023-02-24T21:46:19.449Z,3.60
2023-02-24T21:48:45.993Z,3.70
2023-02-24T21:51:13.759Z,3.90
2023-02-24T21:53:43.437Z,3.47
2023-02-24T21:56:19.921Z,3.63
2023-02-24T21:58:53.591Z,3.60
2023-02-24T22:01:26.896Z,2.97
2023-02-24T22:03:54.910Z,2.50
2023-02-24T22:06:22.276Z,2.58
2023-02-24T22:08:48.952Z,2.83
2023-02-24T22:11:17.238Z,2.53
2023-02-24T22:13:45.358Z,2.33
2023-02-24T22:16:15.997Z,2.08
2023-02-24T22:18:51.185Z,1.90
2023-02-24T22:21:24.128Z,1.75
2023-02-24T22:23:52.826Z,1.98
2023-02-24T22:26:21.163Z,1.58
2023-02-24T22:28:47.855Z,1.90
2023-02-24T22:31:17.117Z,1.92
2023-02-24T22:33:44.734Z,2.40
2023-02-24T22:36:25.563Z,2.65
2023-02-24T22:38:52.792Z,2.67
2023-02-24T22:41:22.264Z,2.35
2023-02-24T22:43:49.682Z,2.03
2023-02-24T22:46:22.928Z,2.05
2023-02-24T22:48:50.353Z,2.22
2023-02-24T22:51:18.052Z,2.45
2023-02-24T22:53:47.220Z,2.33
2023-02-24T22:56:19.891Z,1.90
2023-02-24T22:58:46.524Z,2.17
2023-02-24T23:01:22.330Z,2.15
2023-02-24T23:03:49.285Z,2.15
2023-02-24T23:06:18.052Z,1.70
2023-02-24T23:08:47.026Z,1.77
2023-02-24T23:11:29.394Z,1.75
2023-02-24T23:13:57.620Z,1.80
2023-02-24T23:16:27.424Z,1.90
2023-02-24T23:18:56.234Z,1.83
2023-02-24T23:21:31.703Z,2.05
2023-02-24T23:23:58.069Z,2.33
2023-02-24T23:26:34.157Z,2.00
2023-02-24T23:29:01.083Z,2.28
2023-02-24T23:31:30.251Z,2.60
2023-02-24T23:33:59.310Z,2.92
2023-02-24T23:36:26.219Z,3.25
2023-02-24T23:38:52.879Z,3.65
2023-02-24T23:41:19.606Z,3.33
2023-02-24T23:43:46.014Z,3.47
2023-02-24T23:46:13.519Z,3.78
2023-02-24T23:48:41.854Z,3.05
2023-02-24T23:51:12.482Z,3.28
2023-02-24T23:53:44.622Z,4.03
2023-02-24T23:56:20.351Z,4.15
2023-02-24T23:58:51.641Z,4.97
